Time;durP1;ratioP1;P1;durP2;ratioP2;P2;SDS_P1;SDS_P2;PMS_P1;PMS_P2;Temp;Humidity;BMP_temperature;BMP_pressure;BME280_temperature;BME280_humidity;BME280_pressure;Samples;Min_cycle;Max_cycle;Signal;HPM_P1;HPM_P2
2023/07/21 00:02:19;;;;;;;5.47;3.10;;;15.40;99.90;;;;;;5065351;28;20400;-64
2023/07/21 00:04:45;;;;;;;4.77;3.13;;;15.30;99.90;;;;;;5076025;28;20420;-64
2023/07/21 00:07:11;;;;;;;5.57;3.20;;;15.30;99.90;;;;;;5071216;28;20742;-64
2023/07/21 00:09:37;;;;;;;6.03;3.30;;;15.30;99.90;;;;;;5071351;28;20464;-64
2023/07/21 00:12:03;;;;;;;7.93;3.05;;;15.30;99.90;;;;;;5070828;28;20920;-64
2023/07/21 00:14:30;;;;;;;4.20;2.90;;;15.30;99.90;;;;;;5068725;28;20408;-65
2023/07/21 00:16:55;;;;;;;6.57;2.80;;;15.40;99.90;;;;;;5079715;28;20455;-64
2023/07/21 00:19:21;;;;;;;5.80;3.00;;;15.40;99.90;;;;;;5071221;28;20396;-64
2023/07/21 00:21:47;;;;;;;5.20;2.97;;;15.40;99.90;;;;;;5072676;28;20927;-64
2023/07/21 00:24:13;;;;;;;5.32;3.25;;;15.40;99.90;;;;;;5070959;28;20431;-64
2023/07/21 00:26:39;;;;;;;6.95;3.35;;;15.40;99.90;;;;;;5070951;28;20426;-64
2023/07/21 00:29:04;;;;;;;4.63;3.30;;;15.40;99.90;;;;;;5070897;28;20400;-64
2023/07/21 00:31:31;;;;;;;6.05;3.38;;;15.40;99.90;;;;;;5069990;28;20485;-64
2023/07/21 00:33:57;;;;;;;7.03;3.75;;;15.40;99.90;;;;;;5073010;28;20490;-64
2023/07/21 00:36:23;;;;;;;5.60;3.88;;;15.40;99.90;;;;;;5050472;28;20977;-64
2023/07/21 00:38:50;;;;;;;4.95;3.70;;;15.40;99.90;;;;;;5070619;28;20445;-64
2023/07/21 00:41:15;;;;;;;7.57;3.60;;;15.40;99.90;;;;;;5070728;28;20431;-64
2023/07/21 00:43:41;;;;;;;8.17;3.80;;;15.40;99.90;;;;;;5069876;28;20439;-64
2023/07/21 00:46:09;;;;;;;6.30;3.60;;;15.40;99.90;;;;;;5058537;28;20914;-64
2023/07/21 00:48:36;;;;;;;6.80;3.97;;;15.50;99.90;;;;;;5070229;28;20403;-65
2023/07/21 00:51:02;;;;;;;6.38;3.60;;;15.40;99.90;;;;;;5069453;28;20809;-64
2023/07/21 00:53:28;;;;;;;5.57;3.65;;;15.40;99.90;;;;;;5063470;28;20399;-64
2023/07/21 00:55:53;;;;;;;6.55;3.80;;;15.40;99.90;;;;;;5051141;28;20434;-64
2023/07/21 00:58:19;;;;;;;6.83;3.63;;;15.40;99.90;;;;;;5069408;28;20464;-64
2023/07/21 01:00:46;;;;;;;6.72;3.95;;;15.40;99.90;;;;;;5070072;28;20545;-64
2023/07/21 01:03:13;;;;;;;6.13;3.90;;;15.40;99.90;;;;;;5052207;28;20408;-64
2023/07/21 01:05:42;;;;;;;6.18;4.20;;;15.40;99.90;;;;;;5070006;28;20396;-64
2023/07/21 01:08:10;;;;;;;5.30;3.92;;;15.40;99.90;;;;;;5074278;28;20513;-64
2023/07/21 01:10:37;;;;;;;6.75;4.10;;;15.40;99.90;;;;;;5064216;28;20420;-64
2023/07/21 01:13:04;;;;;;;6.75;3.83;;;15.40;99.90;;;;;;5072938;28;20396;-64
2023/07/21 01:15:30;;;;;;;5.95;4.32;;;15.40;99.90;;;;;;5074064;28;20402;-64
2023/07/21 01:17:57;;;;;;;5.85;4.22;;;15.40;99.90;;;;;;5070493;28;20465;-64
2023/07/21 01:20:25;;;;;;;5.77;4.13;;;15.40;99.90;;;;;;5055246;28;20412;-64
2023/07/21 01:22:56;;;;;;;7.05;4.30;;;15.40;99.90;;;;;;5069080;28;20399;-65
2023/07/21 01:25:23;;;;;;;5.63;3.95;;;15.40;99.90;;;;;;5069024;28;20395;-65
2023/07/21 01:27:52;;;;;;;6.22;4.00;;;15.40;99.90;;;;;;5069812;28;20753;-64
2023/07/21 01:30:19;;;;;;;7.28;4.20;;;15.30;99.90;;;;;;5049784;28;20489;-65
2023/07/21 01:32:46;;;;;;;7.13;4.10;;;15.30;99.90;;;;;;5069762;28;20478;-64
2023/07/21 01:35:15;;;;;;;5.85;3.72;;;15.40;99.90;;;;;;5069037;28;20960;-64
2023/07/21 01:37:42;;;;;;;4.97;3.50;;;15.30;99.90;;;;;;5069271;28;21128;-64
2023/07/21 01:40:09;;;;;;;6.25;3.60;;;15.30;99.90;;;;;;5065538;28;20472;-64
2023/07/21 01:42:36;;;;;;;5.93;3.70;;;15.30;99.90;;;;;;5069778;28;20407;-64
2023/07/21 01:45:03;;;;;;;4.40;3.30;;;15.20;99.90;;;;;;5068498;28;20407;-64
2023/07/21 01:47:32;;;;;;;4.80;3.58;;;15.30;99.90;;;;;;5069318;28;20400;-64
2023/07/21 01:49:58;;;;;;;5.97;3.38;;;15.20;99.90;;;;;;5075200;28;20424;-64
2023/07/21 01:52:31;;;;;;;4.95;3.30;;;15.20;99.90;;;;;;5063510;28;20746;-64
2023/07/21 01:55:09;;;;;;;5.05;3.33;;;15.20;99.90;;;;;;5065466;28;20431;-64
2023/07/21 01:57:38;;;;;;;6.70;3.60;;;15.20;99.90;;;;;;5068833;28;20469;-64
2023/07/21 02:00:08;;;;;;;5.73;3.57;;;15.20;99.90;;;;;;5066955;28;20395;-64
2023/07/21 02:02:34;;;;;;;6.67;3.97;;;15.20;99.90;;;;;;5077255;28;20399;-64
2023/07/21 02:05:01;;;;;;;5.70;4.00;;;15.20;99.90;;;;;;5069758;28;20403;-64
2023/07/21 02:07:27;;;;;;;7.43;4.22;;;15.20;99.90;;;;;;5068982;28;20403;-64
2023/07/21 02:09:52;;;;;;;6.83;4.23;;;15.20;99.90;;;;;;5069185;28;20395;-64
2023/07/21 02:12:19;;;;;;;6.40;4.17;;;15.20;99.90;;;;;;5070718;28;20404;-65
2023/07/21 02:14:45;;;;;;;5.72;3.88;;;15.20;99.90;;;;;;5069393;28;20396;-64
2023/07/21 02:17:11;;;;;;;5.18;3.70;;;15.20;99.90;;;;;;5073791;28;20412;-64
2023/07/21 02:19:37;;;;;;;7.00;3.80;;;15.20;99.90;;;;;;5069553;28;20399;-65
2023/07/21 02:22:03;;;;;;;5.63;3.63;;;15.10;99.90;;;;;;5068975;28;20469;-64
2023/07/21 02:24:28;;;;;;;5.88;3.63;;;15.10;99.90;;;;;;5069082;28;20784;-65
2023/07/21 02:26:54;;;;;;;6.07;3.83;;;15.10;99.90;;;;;;5068868;28;20415;-64
2023/07/21 02:29:20;;;;;;;6.20;3.70;;;15.10;99.90;;;;;;5068803;28;20892;-64
2023/07/21 02:31:47;;;;;;;6.60;3.60;;;15.10;99.90;;;;;;5069203;28;20412;-64
2023/07/21 02:34:12;;;;;;;6.45;3.80;;;15.10;99.90;;;;;;5068539;28;20428;-64
2023/07/21 02:36:38;;;;;;;5.40;3.57;;;15.10;99.90;;;;;;5070222;28;20422;-64
2023/07/21 02:39:04;;;;;;;5.20;3.40;;;14.70;99.90;;;;;;5076842;28;20391;-64
2023/07/21 02:41:30;;;;;;;4.63;3.30;;;15.00;99.90;;;;;;5075321;28;20490;-64
2023/07/21 02:43:56;;;;;;;5.80;3.83;;;15.00;99.90;;;;;;5074907;28;20490;-64
2023/07/21 02:46:21;;;;;;;7.20;3.72;;;15.00;99.90;;;;;;5075272;28;20807;-64
2023/07/21 02:48:47;;;;;;;5.35;3.90;;;15.00;99.90;;;;;;5073646;28;20893;-64
2023/07/21 02:51:13;;;;;;;8.83;3.60;;;15.00;99.90;;;;;;5077701;28;20507;-64
2023/07/21 02:53:39;;;;;;;7.33;3.73;;;15.00;99.90;;;;;;5075003;28;21037;-64
2023/07/21 02:56:05;;;;;;;7.47;3.60;;;15.00;99.90;;;;;;5075545;28;20391;-64
2023/07/21 02:58:32;;;;;;;5.45;3.90;;;14.90;99.90;;;;;;5075036;28;20394;-64
2023/07/21 03:00:59;;;;;;;5.30;4.07;;;14.90;99.90;;;;;;5077058;28;20410;-65
2023/07/21 03:03:26;;;;;;;7.35;4.15;;;15.00;99.90;;;;;;5074218;28;20399;-64
2023/07/21 03:05:52;;;;;;;6.63;3.95;;;15.00;99.90;;;;;;5074891;28;20481;-65
2023/07/21 03:08:30;;;;;;;5.33;3.50;;;14.90;99.90;;;;;;5075915;28;20979;-65
2023/07/21 03:10:56;;;;;;;5.43;3.30;;;15.00;99.90;;;;;;5056913;28;20662;-64
2023/07/21 03:13:24;;;;;;;6.40;3.50;;;14.90;99.90;;;;;;5073938;28;20406;-65
2023/07/21 03:15:51;;;;;;;6.07;3.45;;;14.90;99.90;;;;;;5074721;28;20403;-65
2023/07/21 03:18:17;;;;;;;7.82;3.33;;;14.90;99.90;;;;;;5080389;28;20403;-64
2023/07/21 03:20:43;;;;;;;5.07;3.20;;;14.80;99.90;;;;;;5075263;28;20449;-65
2023/07/21 03:23:09;;;;;;;6.25;3.13;;;14.80;99.90;;;;;;5080292;28;20796;-64
2023/07/21 03:25:46;;;;;;;5.00;3.13;;;14.80;99.90;;;;;;5074754;28;20445;-65
2023/07/21 03:28:11;;;;;;;5.03;3.22;;;14.70;99.90;;;;;;5074505;28;20406;-64
2023/07/21 03:30:37;;;;;;;5.07;3.22;;;14.80;99.90;;;;;;5075814;28;20835;-64
2023/07/21 03:33:03;;;;;;;4.63;3.15;;;14.60;99.90;;;;;;5075075;28;20897;-64
2023/07/21 03:35:28;;;;;;;7.07;3.35;;;14.60;99.90;;;;;;5074430;28;20391;-65
2023/07/21 03:37:56;;;;;;;5.40;3.08;;;14.60;99.90;;;;;;5074901;28;20398;-65
2023/07/21 03:40:22;;;;;;;6.05;3.40;;;14.60;99.90;;;;;;5075023;28;20406;-64
2023/07/21 03:42:47;;;;;;;5.87;3.20;;;14.50;99.90;;;;;;5056567;28;20972;-64
2023/07/21 03:45:13;;;;;;;6.43;3.53;;;14.60;99.90;;;;;;5075852;28;20493;-65
2023/07/21 03:47:38;;;;;;;5.20;3.40;;;14.50;99.90;;;;;;5073022;28;20399;-65
2023/07/21 03:50:05;;;;;;;5.10;3.43;;;14.60;99.90;;;;;;5071550;28;20392;-64
2023/07/21 03:52:30;;;;;;;4.90;3.50;;;14.50;99.90;;;;;;5072052;28;20404;-64
2023/07/21 03:54:56;;;;;;;5.32;3.40;;;14.60;99.90;;;;;;5072105;28;20413;-64
2023/07/21 03:57:22;;;;;;;6.05;3.63;;;14.40;99.90;;;;;;5071466;28;20524;-64
2023/07/21 03:59:48;;;;;;;5.78;3.38;;;14.50;99.90;;;;;;5071439;28;20392;-64
2023/07/21 04:02:16;;;;;;;5.73;3.80;;;14.50;99.90;;;;;;5073754;28;20437;-64
2023/07/21 04:04:45;;;;;;;6.17;3.70;;;14.40;99.90;;;;;;5075697;28;20486;-65
2023/07/21 04:07:14;;;;;;;6.80;4.30;;;14.40;99.90;;;;;;5071428;28;20406;-65
2023/07/21 04:09:39;;;;;;;6.80;4.05;;;14.70;99.90;;;;;;5071170;28;20395;-64
2023/07/21 04:12:06;;;;;;;5.82;4.03;;;14.40;99.90;;;;;;5070400;28;20420;-65
2023/07/21 04:14:32;;;;;;;5.93;4.28;;;14.50;99.90;;;;;;5055567;28;20408;-64
2023/07/21 04:16:58;;;;;;;6.87;4.37;;;14.40;99.90;;;;;;5078546;22;20399;-70
2023/07/21 04:19:27;;;;;;;8.53;4.67;;;14.40;99.90;;;;;;4911976;28;20444;-61
2023/07/21 04:21:53;;;;;;;7.93;4.38;;;14.50;99.90;;;;;;4952282;28;20449;-61
2023/07/21 04:24:19;;;;;;;6.38;4.60;;;14.40;99.90;;;;;;4943434;28;20451;-61
2023/07/21 04:26:45;;;;;;;7.40;4.50;;;14.70;99.90;;;;;;4948930;28;20489;-62
2023/07/21 04:29:10;;;;;;;5.38;4.03;;;14.50;99.90;;;;;;4946293;28;20477;-62
2023/07/21 04:31:36;;;;;;;6.03;4.37;;;14.50;99.90;;;;;;4941871;28;20970;-62
2023/07/21 04:34:02;;;;;;;7.73;4.60;;;14.50;99.90;;;;;;4938423;28;20475;-66
2023/07/21 04:36:27;;;;;;;7.47;4.80;;;14.50;99.90;;;;;;4938752;28;20419;-61
2023/07/21 04:38:53;;;;;;;8.55;4.90;;;14.50;99.90;;;;;;4928234;28;20512;-64
2023/07/21 04:41:20;;;;;;;6.32;4.68;;;14.60;99.90;;;;;;4985971;28;20413;-62
2023/07/21 04:43:45;;;;;;;10.15;4.80;;;14.50;99.90;;;;;;4938992;28;20412;-61
2023/07/21 04:46:12;;;;;;;6.80;5.10;;;14.50;99.90;;;;;;4952818;28;20897;-62
2023/07/21 04:48:37;;;;;;;6.53;4.90;;;14.60;99.90;;;;;;5001591;28;20410;-62
2023/07/21 04:51:06;;;;;;;7.38;5.50;;;14.60;99.90;;;;;;4944688;28;20425;-62
2023/07/21 04:53:32;;;;;;;7.70;5.35;;;14.60;99.90;;;;;;4926487;29;20758;-62
2023/07/21 04:55:58;;;;;;;7.22;4.97;;;14.40;99.90;;;;;;4941525;28;20419;-62
2023/07/21 04:58:24;;;;;;;8.65;5.53;;;14.60;99.90;;;;;;4943946;28;20477;-62
2023/07/21 05:00:50;;;;;;;7.38;4.97;;;14.60;99.90;;;;;;4940763;28;20414;-63
2023/07/21 05:03:16;;;;;;;8.73;5.72;;;14.60;99.90;;;;;;4948443;28;20410;-62
2023/07/21 05:05:44;;;;;;;7.30;5.50;;;14.70;99.90;;;;;;4929767;28;20522;-62
2023/07/21 05:08:10;;;;;;;9.43;5.65;;;14.70;99.90;;;;;;4933192;28;20408;-62
2023/07/21 05:10:36;;;;;;;6.77;5.30;;;14.70;99.90;;;;;;4967295;28;20894;-62
2023/07/21 05:13:05;;;;;;;8.38;5.40;;;14.70;99.90;;;;;;4975915;28;20418;-62
2023/07/21 05:15:35;;;;;;;9.18;6.15;;;14.70;99.90;;;;;;4942624;28;20852;-62
2023/07/21 05:18:02;;;;;;;7.38;5.40;;;14.70;99.90;;;;;;4984554;28;20421;-62
2023/07/21 05:20:27;;;;;;;8.52;6.07;;;14.80;99.90;;;;;;4946379;28;20493;-62
2023/07/21 05:22:53;;;;;;;7.22;5.53;;;14.80;99.90;;;;;;4974900;28;20445;-62
2023/07/21 05:25:19;;;;;;;7.40;5.40;;;14.80;99.90;;;;;;4916497;28;20614;-62
2023/07/21 05:27:49;;;;;;;8.82;6.00;;;14.90;99.90;;;;;;4963916;28;20416;-62
2023/07/21 05:30:15;;;;;;;7.07;5.85;;;14.80;99.90;;;;;;4942191;28;20466;-63
2023/07/21 05:32:41;;;;;;;9.18;6.07;;;14.90;99.90;;;;;;4940811;28;20454;-62
2023/07/21 05:35:10;;;;;;;9.23;6.30;;;14.90;99.90;;;;;;4948640;28;20398;-62
2023/07/21 05:37:36;;;;;;;9.35;6.03;;;14.90;99.90;;;;;;4945675;28;20869;-62
2023/07/21 05:40:02;;;;;;;8.35;6.28;;;14.90;99.90;;;;;;4980673;28;20561;-62
2023/07/21 05:42:27;;;;;;;9.77;6.45;;;14.90;99.90;;;;;;4941363;28;20452;-62
2023/07/21 05:44:53;;;;;;;10.57;6.50;;;14.90;99.90;;;;;;4947262;28;20786;-62
2023/07/21 05:47:22;;;;;;;7.57;6.13;;;14.90;99.90;;;;;;4955502;28;20967;-62
2023/07/21 05:49:48;;;;;;;8.43;6.00;;;14.90;99.90;;;;;;4987788;28;20501;-63
2023/07/21 05:52:14;;;;;;;10.40;5.97;;;15.00;99.90;;;;;;4958788;28;21015;-62
2023/07/21 05:54:41;;;;;;;9.48;5.95;;;15.00;99.90;;;;;;4945407;28;20545;-62
2023/07/21 05:57:07;;;;;;;8.88;5.80;;;15.00;99.90;;;;;;4969397;28;20460;-62
2023/07/21 05:59:33;;;;;;;9.23;6.17;;;15.00;99.90;;;;;;4947747;28;20843;-63
2023/07/21 06:02:00;;;;;;;8.43;5.60;;;15.00;99.90;;;;;;4929000;28;20422;-62
2023/07/21 06:04:25;;;;;;;7.70;5.70;;;15.00;99.90;;;;;;4949220;28;20417;-62
2023/07/21 06:06:51;;;;;;;8.13;5.53;;;15.00;99.90;;;;;;4943347;28;20889;-62
2023/07/21 06:09:17;;;;;;;9.10;5.83;;;15.10;99.90;;;;;;4945614;28;20915;-63
2023/07/21 06:11:43;;;;;;;8.95;5.50;;;15.10;99.90;;;;;;4937283;28;20425;-63
2023/07/21 06:14:08;;;;;;;9.37;5.43;;;15.10;99.90;;;;;;4944281;28;20503;-62
2023/07/21 06:16:34;;;;;;;8.00;5.03;;;15.20;99.90;;;;;;4926421;29;20818;-62
2023/07/21 06:19:00;;;;;;;8.20;5.50;;;15.20;99.90;;;;;;4943684;28;20810;-63
2023/07/21 06:21:26;;;;;;;8.02;5.40;;;15.20;99.90;;;;;;4947417;28;20421;-62
2023/07/21 06:23:53;;;;;;;6.47;5.23;;;15.20;99.90;;;;;;5017937;28;20562;-62
2023/07/21 06:26:19;;;;;;;6.82;4.50;;;15.20;99.90;;;;;;4931165;28;20457;-62
2023/07/21 06:28:45;;;;;;;7.88;4.78;;;15.30;99.90;;;;;;4943125;28;21005;-62
2023/07/21 06:31:11;;;;;;;8.30;4.63;;;15.30;99.90;;;;;;4940849;28;20435;-62
2023/07/21 06:33:37;;;;;;;9.93;5.22;;;15.40;99.90;;;;;;4934690;28;20976;-62
2023/07/21 06:36:03;;;;;;;8.40;5.28;;;15.40;99.90;;;;;;4937201;28;20408;-62
2023/07/21 06:38:29;;;;;;;8.98;4.90;;;15.50;99.90;;;;;;4922977;28;20509;-64
2023/07/21 06:40:55;;;;;;;7.97;5.20;;;15.60;99.90;;;;;;4943403;28;20516;-64
2023/07/21 06:43:21;;;;;;;8.45;4.57;;;15.60;99.90;;;;;;4951441;28;20471;-64
2023/07/21 06:45:46;;;;;;;9.60;5.30;;;15.70;99.90;;;;;;4955273;28;20422;-63
2023/07/21 06:48:12;;;;;;;8.90;4.77;;;15.80;99.90;;;;;;4925120;28;20421;-63
2023/07/21 06:50:38;;;;;;;8.03;4.47;;;15.80;99.90;;;;;;4939817;28;20450;-63
2023/07/21 06:53:05;;;;;;;8.20;4.57;;;15.80;99.90;;;;;;4936833;28;20453;-64
2023/07/21 06:55:32;;;;;;;7.40;4.23;;;15.90;99.90;;;;;;4917377;29;20937;-64
2023/07/21 06:57:58;;;;;;;7.55;4.30;;;16.00;99.90;;;;;;4941998;28;20408;-63
2023/07/21 07:00:24;;;;;;;10.20;4.47;;;16.00;99.90;;;;;;4945970;28;20493;-60
2023/07/21 07:02:50;;;;;;;10.20;4.67;;;16.00;99.90;;;;;;4981498;28;20972;-61
2023/07/21 07:05:16;;;;;;;7.13;4.00;;;16.10;99.90;;;;;;4924169;28;20423;-64
2023/07/21 07:07:42;;;;;;;7.90;4.20;;;16.10;99.90;;;;;;4946556;28;20452;-64
2023/07/21 07:10:08;;;;;;;7.20;4.10;;;16.20;99.90;;;;;;4945678;28;20450;-63
2023/07/21 07:12:34;;;;;;;7.57;3.90;;;16.20;99.90;;;;;;4936591;28;20546;-63
2023/07/21 07:15:00;;;;;;;7.30;3.70;;;16.20;99.90;;;;;;4928461;28;20964;-64
2023/07/21 07:17:27;;;;;;;5.90;3.63;;;16.30;99.90;;;;;;4945812;28;20521;-63
2023/07/21 07:19:53;;;;;;;6.63;3.80;;;16.30;99.90;;;;;;4943791;28;20496;-63
2023/07/21 07:22:19;;;;;;;5.23;3.10;;;16.30;99.90;;;;;;4956097;28;20414;-61
2023/07/21 07:24:44;;;;;;;5.50;3.20;;;16.30;99.90;;;;;;4924831;29;20407;-64
2023/07/21 07:27:10;;;;;;;4.87;2.93;;;16.40;99.90;;;;;;4946316;28;20409;-64
2023/07/21 07:29:36;;;;;;;6.82;2.80;;;16.40;99.90;;;;;;4962714;28;20423;-63
2023/07/21 07:32:01;;;;;;;4.57;2.60;;;16.50;99.90;;;;;;4937738;28;20481;-63
2023/07/21 07:34:27;;;;;;;6.70;3.10;;;16.50;99.90;;;;;;4936157;28;20404;-64
2023/07/21 07:36:54;;;;;;;5.35;2.90;;;16.60;99.90;;;;;;4939776;28;20905;-63
2023/07/21 07:39:20;;;;;;;5.18;3.25;;;16.60;99.90;;;;;;4926012;28;20781;-63
2023/07/21 07:41:45;;;;;;;5.97;3.60;;;16.70;99.90;;;;;;4936666;28;20491;-64
2023/07/21 07:44:11;;;;;;;5.40;3.30;;;16.70;99.90;;;;;;4958151;28;20946;-62
2023/07/21 07:46:37;;;;;;;4.17;3.00;;;16.80;99.90;;;;;;4938728;28;20795;-63
2023/07/21 07:49:03;;;;;;;4.13;2.90;;;16.80;99.90;;;;;;4928890;28;20409;-64
2023/07/21 07:51:29;;;;;;;4.50;2.85;;;16.90;99.90;;;;;;4925876;28;20482;-64
2023/07/21 07:53:55;;;;;;;4.60;2.72;;;16.90;99.90;;;;;;4938906;28;20414;-63
2023/07/21 07:56:21;;;;;;;4.28;2.50;;;17.10;99.90;;;;;;4926094;28;20434;-64
2023/07/21 07:58:47;;;;;;;3.47;2.30;;;17.10;99.90;;;;;;4965843;28;20413;-64
2023/07/21 08:01:13;;;;;;;5.07;2.45;;;17.20;99.90;;;;;;4952591;28;20421;-64
2023/07/21 08:03:43;;;;;;;4.07;2.60;;;17.30;99.90;;;;;;4952038;28;20420;-63
2023/07/21 08:06:10;;;;;;;6.15;3.00;;;17.40;99.90;;;;;;4923950;28;20425;-64
2023/07/21 08:08:36;;;;;;;6.10;2.80;;;17.50;99.90;;;;;;4925006;28;20423;-61
2023/07/21 08:11:03;;;;;;;5.07;3.20;;;17.60;99.90;;;;;;4942155;28;20783;-64
2023/07/21 08:13:28;;;;;;;4.77;2.80;;;17.70;99.90;;;;;;4946981;28;20410;-63
2023/07/21 08:15:54;;;;;;;4.27;3.00;;;17.70;99.90;;;;;;4959088;28;20752;-61
2023/07/21 08:18:19;;;;;;;4.80;3.23;;;17.80;99.90;;;;;;4929647;28;20416;-64
2023/07/21 08:20:45;;;;;;;5.75;3.20;;;17.90;99.90;;;;;;4933664;28;20459;-64
2023/07/21 08:23:11;;;;;;;4.15;2.95;;;18.00;99.90;;;;;;4940895;28;20842;-63
2023/07/21 08:25:37;;;;;;;4.65;2.90;;;18.10;99.90;;;;;;4974117;28;20413;-63
2023/07/21 08:28:03;;;;;;;4.77;2.90;;;18.20;99.90;;;;;;4932682;29;20424;-62
2023/07/21 08:30:32;;;;;;;4.38;3.03;;;18.40;99.90;;;;;;4963651;28;20456;-62
2023/07/21 08:32:58;;;;;;;6.13;2.60;;;18.50;99.90;;;;;;4942096;28;20488;-59
2023/07/21 08:35:25;;;;;;;4.10;2.15;;;18.70;99.90;;;;;;4965563;28;20422;-64
2023/07/21 08:37:51;;;;;;;3.53;2.08;;;18.90;99.90;;;;;;4939151;28;20422;-64
2023/07/21 08:40:19;;;;;;;4.00;2.10;;;19.20;99.90;;;;;;4925287;28;20823;-63
2023/07/21 08:42:45;;;;;;;3.28;2.20;;;19.40;99.50;;;;;;4926273;29;20831;-64
2023/07/21 08:45:14;;;;;;;3.42;2.20;;;19.70;99.50;;;;;;4949613;28;20454;-63
2023/07/21 08:47:40;;;;;;;4.38;2.10;;;20.00;98.80;;;;;;4943618;28;20879;-64
2023/07/21 08:50:06;;;;;;;5.70;2.50;;;20.40;98.10;;;;;;4952564;28;20408;-64
2023/07/21 08:52:32;;;;;;;3.92;2.00;;;20.60;97.10;;;;;;4963781;28;20415;-63
2023/07/21 08:54:59;;;;;;;4.25;1.80;;;20.70;96.00;;;;;;4925701;28;20420;-60
2023/07/21 08:57:25;;;;;;;3.90;2.30;;;20.60;94.50;;;;;;4949446;28;20414;-63
2023/07/21 08:59:54;;;;;;;2.93;2.10;;;20.60;95.00;;;;;;4910073;29;20776;-64
2023/07/21 09:02:37;;;;;;;3.10;2.10;;;20.70;95.30;;;;;;4926068;29;20453;-64
2023/07/21 09:05:03;;;;;;;6.03;2.30;;;21.00;95.60;;;;;;5009307;28;20451;-64
2023/07/21 09:07:30;;;;;;;3.58;2.03;;;21.30;95.20;;;;;;4948353;28;20844;-63
2023/07/21 09:09:56;;;;;;;4.10;2.00;;;21.40;94.70;;;;;;4944484;28;20416;-63
2023/07/21 09:12:21;;;;;;;2.60;1.70;;;21.50;94.90;;;;;;4939922;28;20509;-63
2023/07/21 09:14:47;;;;;;;3.97;2.23;;;21.70;93.50;;;;;;4953512;28;20403;-64
2023/07/21 09:17:15;;;;;;;5.03;2.13;;;22.00;92.90;;;;;;4957722;28;20438;-64
2023/07/21 09:19:42;;;;;;;4.03;2.20;;;22.10;92.50;;;;;;4953257;28;20410;-63
2023/07/21 09:22:09;;;;;;;4.63;2.60;;;22.00;92.50;;;;;;4942354;28;20493;-63
2023/07/21 09:24:37;;;;;;;3.42;2.40;;;21.80;92.40;;;;;;4941511;28;20434;-64
2023/07/21 09:27:16;;;;;;;4.60;2.20;;;21.70;92.70;;;;;;4976797;28;20498;-63
2023/07/21 09:29:43;;;;;;;2.65;2.00;;;21.60;92.40;;;;;;4944609;28;20409;-61
2023/07/21 09:32:19;;;;;;;2.88;1.70;;;21.60;92.60;;;;;;4942527;28;20422;-63
2023/07/21 09:34:57;;;;;;;3.40;2.15;;;21.60;91.90;;;;;;4930004;28;20418;-62
2023/07/21 09:37:26;;;;;;;3.17;1.67;;;21.60;91.00;;;;;;4938523;28;20564;-61
2023/07/21 09:39:54;;;;;;;4.70;1.90;;;21.60;90.50;;;;;;4942398;28;20929;-63
2023/07/21 09:42:25;;;;;;;3.70;2.05;;;21.70;91.50;;;;;;4944549;28;20473;-63
2023/07/21 09:44:55;;;;;;;2.70;2.00;;;21.80;91.00;;;;;;4902198;28;20925;-63
2023/07/21 09:47:22;;;;;;;2.90;1.90;;;21.90;91.10;;;;;;4947046;28;20907;-63
2023/07/21 09:49:49;;;;;;;2.90;2.10;;;22.00;90.70;;;;;;4938866;28;20905;-63
2023/07/21 09:52:16;;;;;;;3.58;2.15;;;22.00;90.40;;;;;;4930038;28;20467;-64
2023/07/21 09:54:45;;;;;;;3.65;1.85;;;22.20;90.50;;;;;;4944685;28;20445;-63
2023/07/21 09:57:21;;;;;;;4.07;1.83;;;22.50;89.60;;;;;;4954746;28;20496;-63
2023/07/21 09:59:49;;;;;;;2.30;1.90;;;22.80;88.10;;;;;;5003764;28;20452;-62
2023/07/21 10:02:16;;;;;;;2.42;1.70;;;22.90;85.30;;;;;;4953119;28;20943;-61
2023/07/21 10:04:46;;;;;;;3.85;1.60;;;23.00;83.10;;;;;;4942406;28;20408;-64
2023/07/21 10:07:12;;;;;;;1.70;1.60;;;23.00;81.10;;;;;;4947086;28;20407;-62
2023/07/21 10:09:40;;;;;;;3.17;1.60;;;22.80;80.10;;;;;;4948517;28;20417;-62
2023/07/21 10:12:09;;;;;;;3.65;1.58;;;22.60;82.20;;;;;;4943272;28;20488;-62
2023/07/21 10:14:38;;;;;;;2.70;1.48;;;22.70;83.90;;;;;;4992974;28;20415;-63
2023/07/21 10:17:04;;;;;;;2.05;1.60;;;23.60;83.10;;;;;;4956086;28;20406;-61
2023/07/21 10:19:39;;;;;;;3.40;2.33;;;22.90;83.00;;;;;;4941662;28;20402;-62
2023/07/21 10:22:05;;;;;;;3.67;2.28;;;22.80;81.30;;;;;;4941963;28;20733;-62
2023/07/21 10:24:34;;;;;;;2.83;1.80;;;22.70;81.10;;;;;;4942492;28;20775;-62
2023/07/21 10:27:06;;;;;;;5.55;1.95;;;22.60;84.20;;;;;;4929989;28;20454;-63
2023/07/21 10:29:32;;;;;;;2.60;2.00;;;22.60;82.60;;;;;;4954118;28;20429;-63
2023/07/21 10:31:59;;;;;;;2.45;1.60;;;22.70;82.90;;;;;;4929667;28;20486;-64
2023/07/21 10:34:34;;;;;;;2.40;1.70;;;22.90;81.50;;;;;;4940091;28;20839;-64
2023/07/21 10:37:02;;;;;;;4.20;2.15;;;23.00;80.00;;;;;;4920608;29;20499;-64
2023/07/21 10:39:31;;;;;;;27.30;3.58;;;23.00;80.10;;;;;;4929084;28;20400;-64
2023/07/21 10:42:06;;;;;;;33.25;4.00;;;23.00;82.70;;;;;;4954053;28;20405;-64
2023/07/21 10:44:40;;;;;;;4.50;2.03;;;23.10;84.40;;;;;;4913540;28;20122;-64
2023/07/21 10:47:18;;;;;;;2.83;2.00;;;22.90;85.90;;;;;;4936460;28;20573;-64
2023/07/21 10:49:45;;;;;;;2.85;1.88;;;22.90;86.80;;;;;;4928413;28;20136;-64
2023/07/21 10:52:11;;;;;;;4.50;2.00;;;22.90;86.90;;;;;;4950405;28;20081;-64
2023/07/21 10:54:37;;;;;;;4.80;2.33;;;22.80;85.20;;;;;;4942342;28;20440;-64
2023/07/21 10:57:03;;;;;;;2.22;2.03;;;22.80;84.40;;;;;;4941059;28;20066;-64
2023/07/21 10:59:34;;;;;;;2.72;2.30;;;22.70;84.80;;;;;;4930208;28;20089;-64
2023/07/21 11:02:02;;;;;;;3.37;2.57;;;22.60;85.70;;;;;;4935449;28;20051;-64
2023/07/21 11:04:29;;;;;;;3.35;2.42;;;22.60;85.80;;;;;;4941958;28;20291;-64
2023/07/21 11:06:57;;;;;;;2.88;2.33;;;22.60;85.80;;;;;;4975897;28;20046;-64
2023/07/21 11:09:23;;;;;;;3.28;2.40;;;22.60;85.50;;;;;;4944279;28;20122;-64
2023/07/21 11:11:52;;;;;;;3.80;1.98;;;22.50;84.80;;;;;;4964768;28;20076;-64
2023/07/21 11:14:26;;;;;;;2.20;1.85;;;22.40;83.90;;;;;;4957156;28;20055;-64
2023/07/21 11:16:57;;;;;;;4.20;1.85;;;22.40;83.30;;;;;;4942423;28;20054;-64
2023/07/21 11:19:24;;;;;;;2.40;1.57;;;22.30;83.40;;;;;;4949738;28;20039;-64
2023/07/21 11:21:50;;;;;;;2.72;1.80;;;22.30;82.90;;;;;;4926590;28;20464;-64
2023/07/21 11:24:22;;;;;;;2.47;1.50;;;22.30;82.80;;;;;;4956692;28;20050;-64
2023/07/21 11:26:48;;;;;;;2.20;1.95;;;22.40;82.80;;;;;;4952424;28;20043;-64
2023/07/21 11:29:15;;;;;;;2.10;1.65;;;22.40;82.90;;;;;;4962694;28;20433;-64
2023/07/21 11:31:41;;;;;;;1.67;1.50;;;22.40;82.50;;;;;;4950997;28;20039;-64
2023/07/21 11:34:24;;;;;;;4.57;1.50;;;22.50;81.70;;;;;;4929657;28;20133;-64
2023/07/21 11:36:55;;;;;;;3.45;2.10;;;22.70;82.40;;;;;;4942244;28;20100;-64
2023/07/21 11:39:22;;;;;;;3.92;2.00;;;22.90;81.20;;;;;;4956839;28;20081;-64
2023/07/21 11:41:53;;;;;;;;;;;23.00;81.90;;;;;;4943131;28;20036;-64
2023/07/21 11:44:19;;;;;;;;;;;23.20;80.80;;;;;;4948733;28;19926;-63
2023/07/21 11:46:55;;;;;;;;;;;23.40;82.00;;;;;;4950881;28;20380;-64
2023/07/21 11:49:22;;;;;;;;;;;23.60;81.40;;;;;;4945047;28;20463;-64
2023/07/21 11:51:48;;;;;;;;;;;23.90;81.30;;;;;;4945057;28;19922;-64
2023/07/21 11:54:18;;;;;;;;;;;24.20;81.70;;;;;;4916626;28;19919;-64
2023/07/21 11:56:44;;;;;;;;;;;24.50;81.10;;;;;;4949619;28;19972;-64
2023/07/21 11:59:10;;;;;;;;;;;24.80;79.60;;;;;;4948802;28;19926;-64
2023/07/21 12:01:35;;;;;;;;;;;24.90;78.20;;;;;;4971061;28;19975;-64
2023/07/21 12:04:01;;;;;;;;;;;24.80;78.00;;;;;;4951380;28;19962;-64
2023/07/21 12:06:26;;;;;;;;;;;24.80;78.90;;;;;;4943815;28;20380;-64
2023/07/21 12:08:52;;;;;;;;;;;24.70;77.80;;;;;;4921464;28;20462;-64
2023/07/21 12:11:17;;;;;;;;;;;24.80;78.90;;;;;;4926560;28;20298;-64
2023/07/21 12:13:43;;;;;;;;;;;24.80;77.40;;;;;;4931816;28;20094;-64
2023/07/21 12:16:08;;;;;;;;;;;25.00;78.20;;;;;;4947552;28;19918;-63
2023/07/21 12:18:34;;;;;;;;;;;25.20;76.40;;;;;;4947435;28;20376;-63
2023/07/21 12:20:59;;;;;;;;;;;25.20;76.60;;;;;;4976759;28;19928;-64
2023/07/21 12:23:25;;;;;;;;;;;25.10;74.00;;;;;;4956125;28;19941;-63
2023/07/21 12:25:50;;;;;;;;;;;24.90;73.70;;;;;;4942789;28;19925;-64
2023/07/21 12:28:16;;;;;;;;;;;24.80;75.30;;;;;;4963194;28;19922;-64
2023/07/21 12:30:42;;;;;;;;;;;24.70;74.70;;;;;;4931270;28;19923;-63
2023/07/21 12:33:07;;;;;;;;;;;24.40;73.70;;;;;;4995178;28;20284;-64
2023/07/21 12:35:33;;;;;;;;;;;24.20;74.80;;;;;;4944495;28;20484;-63
2023/07/21 12:38:00;;;;;;;;;;;23.90;75.40;;;;;;4929309;28;20256;-63
2023/07/21 12:40:25;;;;;;;2.97;1.65;;;23.70;75.30;;;;;;4942241;28;19918;-64
2023/07/21 12:42:51;;;;;;;4.53;1.83;;;23.50;75.90;;;;;;5024870;28;20059;-63
2023/07/21 12:45:17;;;;;;;3.28;2.00;;;23.30;76.30;;;;;;4931181;28;20047;-64
2023/07/21 12:47:42;;;;;;;2.28;1.77;;;23.20;75.70;;;;;;4950591;28;20042;-63
2023/07/21 12:50:08;;;;;;;2.90;2.03;;;22.90;76.10;;;;;;4937677;28;20051;-63
2023/07/21 12:52:34;;;;;;;4.60;1.83;;;22.70;77.60;;;;;;4930091;28;20071;-64